sensor_id;sensor_type;location;lat;lon;timestamp;pressure;altitude;pressure_sealevel;temperature;humidity
13015;BME280;6573;57.696;11.950;2023-07-13T00:01:16;100599.25;;;20.51;100.00
13015;BME280;6573;57.696;11.950;2023-07-13T00:03:45;100590.00;;;20.58;100.00
13015;BME280;6573;57.696;11.950;2023-07-13T00:06:13;100597.22;;;20.56;100.00
13015;BME280;6573;57.696;11.950;2023-07-13T00:08:42;100581.34;;;20.53;100.00
13015;BME280;6573;57.696;11.950;2023-07-13T00:11:11;100587.91;;;20.46;100.00
13015;BME280;6573;57.696;11.950;2023-07-13T00:13:40;100594.19;;;20.45;100.00
13015;BME280;6573;57.696;11.950;2023-07-13T00:16:09;100565.59;;;20.29;100.00
13015;BME280;6573;57.696;11.950;2023-07-13T00:18:40;100587.09;;;20.44;100.00
13015;BME280;6573;57.696;11.950;2023-07-13T00:21:09;100588.56;;;20.51;100.00
13015;BME280;6573;57.696;11.950;2023-07-13T00:23:39;100588.56;;;20.51;100.00
13015;BME280;6573;57.696;11.950;2023-07-13T00:26:09;100578.16;;;20.45;100.00
13015;BME280;6573;57.696;11.950;2023-07-13T00:28:40;100596.91;;;20.62;100.00
13015;BME280;6573;57.696;11.950;2023-07-13T00:31:09;100595.22;;;20.61;100.00
13015;BME280;6573;57.696;11.950;2023-07-13T00:33:39;100579.31;;;20.58;100.00
13015;BME280;6573;57.696;11.950;2023-07-13T00:36:09;100589.88;;;20.61;100.00
13015;BME280;6573;57.696;11.950;2023-07-13T00:38:38;100574.53;;;20.46;100.00
13015;BME280;6573;57.696;11.950;2023-07-13T00:41:07;100595.03;;;20.64;100.00
13015;BME280;6573;57.696;11.950;2023-07-13T00:43:36;100588.69;;;20.48;100.00
13015;BME280;6573;57.696;11.950;2023-07-13T00:46:20;100597.94;;;20.41;100.00
13015;BME280;6573;57.696;11.950;2023-07-13T00:48:51;100580.31;;;20.37;100.00
13015;BME280;6573;57.696;11.950;2023-07-13T00:51:25;100587.09;;;20.44;100.00
13015;BME280;6573;57.696;11.950;2023-07-13T00:53:58;100599.44;;;20.47;100.00
13015;BME280;6573;57.696;11.950;2023-07-13T00:56:27;100590.28;;;20.34;100.00
13015;BME280;6573;57.696;11.950;2023-07-13T00:58:57;100590.06;;;20.38;100.00
13015;BME280;6573;57.696;11.950;2023-07-13T01:01:26;100570.47;;;20.19;100.00
13015;BME280;6573;57.696;11.950;2023-07-13T01:03:55;100596.47;;;20.34;100.00
13015;BME280;6573;57.696;11.950;2023-07-13T01:06:24;100570.78;;;20.32;100.00
13015;BME280;6573;57.696;11.950;2023-07-13T01:08:53;100592.28;;;20.47;100.00
13015;BME280;6573;57.696;11.950;2023-07-13T01:11:22;100588.56;;;20.51;100.00
13015;BME280;6573;57.696;11.950;2023-07-13T01:13:50;100583.50;;;20.45;100.00
13015;BME280;6573;57.696;11.950;2023-07-13T01:16:24;100595.47;;;20.55;100.00
13015;BME280;6573;57.696;11.950;2023-07-13T01:18:53;100595.03;;;20.64;100.00
13015;BME280;6573;57.696;11.950;2023-07-13T01:21:28;100592.81;;;20.55;100.00
13015;BME280;6573;57.696;11.950;2023-07-13T01:23:57;100595.34;;;20.58;100.00
13015;BME280;6573;57.696;11.950;2023-07-13T01:26:26;100590.78;;;20.60;100.00
13015;BME280;6573;57.696;11.950;2023-07-13T01:28:55;100598.81;;;20.60;100.00
13015;BME280;6573;57.696;11.950;2023-07-13T01:31:24;100583.22;;;20.51;100.00
13015;BME280;6573;57.696;11.950;2023-07-13T01:33:53;100588.25;;;20.39;100.00
13015;BME280;6573;57.696;11.950;2023-07-13T01:36:21;100591.59;;;20.44;100.00
13015;BME280;6573;57.696;11.950;2023-07-13T01:38:51;100581.34;;;20.53;100.00
13015;BME280;6573;57.696;11.950;2023-07-13T01:41:20;100584.66;;;20.58;100.00
13015;BME280;6573;57.696;11.950;2023-07-13T01:43:48;100570.91;;;20.47;100.00
13015;BME280;6573;57.696;11.950;2023-07-13T01:46:17;100581.59;;;20.47;100.00
13015;BME280;6573;57.696;11.950;2023-07-13T01:48:50;100598.59;;;20.46;100.00
13015;BME280;6573;57.696;11.950;2023-07-13T01:51:20;100597.06;;;20.41;100.00
13015;BME280;6573;57.696;11.950;2023-07-13T01:53:48;100593.03;;;20.51;100.00
13015;BME280;6573;57.696;11.950;2023-07-13T01:56:18;100595.22;;;20.61;100.00
13015;BME280;6573;57.696;11.950;2023-07-13T01:58:47;100592.44;;;20.63;100.00
13015;BME280;6573;57.696;11.950;2023-07-13T02:01:15;100598.22;;;20.73;100.00
13015;BME280;6573;57.696;11.950;2023-07-13T02:03:44;100583.22;;;20.51;100.00
13015;BME280;6573;57.696;11.950;2023-07-13T02:06:13;100590.00;;;20.58;100.00
13015;BME280;6573;57.696;11.950;2023-07-13T02:08:42;100583.75;;;20.77;100.00
13015;BME280;6573;57.696;11.950;2023-07-13T02:11:10;100578.44;;;20.58;100.00
13015;BME280;6573;57.696;11.950;2023-07-13T02:13:41;100595.03;;;20.64;100.00
13015;BME280;6573;57.696;11.950;2023-07-13T02:16:09;100596.78;;;20.65;100.00
13015;BME280;6573;57.696;11.950;2023-07-13T02:18:38;100600.09;;;20.71;100.00
13015;BME280;6573;57.696;11.950;2023-07-13T02:21:07;100574.66;;;20.62;100.00
13015;BME280;6573;57.696;11.950;2023-07-13T02:23:38;100603.56;;;20.73;100.00
13015;BME280;6573;57.696;11.950;2023-07-13T02:26:07;100606.25;;;20.73;100.00
13015;BME280;6573;57.696;11.950;2023-07-13T02:28:36;100605.03;;;20.61;100.00
13015;BME280;6573;57.696;11.950;2023-07-13T02:31:07;100607.09;;;20.54;100.00
13015;BME280;6573;57.696;11.950;2023-07-13T02:33:36;100617.44;;;20.43;100.00
13015;BME280;6573;57.696;11.950;2023-07-13T02:36:05;100614.09;;;20.38;100.00
13015;BME280;6573;57.696;11.950;2023-07-13T02:38:33;100614.53;;;20.29;100.00
13015;BME280;6573;57.696;11.950;2023-07-13T02:41:03;100609.34;;;20.26;100.00
13015;BME280;6573;57.696;11.950;2023-07-13T02:43:31;100610.78;;;20.33;100.00
13015;BME280;6573;57.696;11.950;2023-07-13T02:46:00;100604.88;;;20.45;100.00
13015;BME280;6573;57.696;11.950;2023-07-13T02:48:37;100604.72;;;20.48;100.00
13015;BME280;6573;57.696;11.950;2023-07-13T02:51:06;100612.38;;;20.37;100.00
13015;BME280;6573;57.696;11.950;2023-07-13T02:53:35;100616.13;;;20.33;100.00
13015;BME280;6573;57.696;11.950;2023-07-13T02:56:04;100613.03;;;20.22;100.00
13015;BME280;6573;57.696;11.950;2023-07-13T02:58:32;100605.13;;;20.39;100.00
13015;BME280;6573;57.696;11.950;2023-07-13T03:01:07;100601.28;;;20.46;100.00
13015;BME280;6573;57.696;11.950;2023-07-13T03:03:37;100586.38;;;20.59;100.00
13015;BME280;6573;57.696;11.950;2023-07-13T03:06:08;100598.94;;;20.57;100.00
13015;BME280;6573;57.696;11.950;2023-07-13T03:08:37;100593.72;;;20.54;100.00
13015;BME280;6573;57.696;11.950;2023-07-13T03:11:07;100602.28;;;20.44;100.00
13015;BME280;6573;57.696;11.950;2023-07-13T03:13:39;100597.94;;;20.41;100.00
13015;BME280;6573;57.696;11.950;2023-07-13T03:16:08;100605.28;;;20.55;100.00
13015;BME280;6573;57.696;11.950;2023-07-13T03:18:39;100595.03;;;20.64;100.00
13015;BME280;6573;57.696;11.950;2023-07-13T03:21:08;100605.91;;;20.61;100.00
13015;BME280;6573;57.696;11.950;2023-07-13T03:23:36;100596.91;;;20.62;100.00
13015;BME280;6573;57.696;11.950;2023-07-13T03:26:07;100600.69;;;20.58;100.00
13015;BME280;6573;57.696;11.950;2023-07-13T03:28:37;100606.44;;;20.49;100.00
13015;BME280;6573;57.696;11.950;2023-07-13T03:31:10;100609.13;;;20.31;100.00
13015;BME280;6573;57.696;11.950;2023-07-13T03:33:40;100607.03;;;20.37;100.00
13015;BME280;6573;57.696;11.950;2023-07-13T03:36:12;100605.88;;;20.43;100.00
13015;BME280;6573;57.696;11.950;2023-07-13T03:38:41;100612.22;;;20.40;100.00
13015;BME280;6573;57.696;11.950;2023-07-13T03:41:09;100604.00;;;20.45;100.00
13015;BME280;6573;57.696;11.950;2023-07-13T03:43:37;100611.44;;;20.57;100.00
13015;BME280;6573;57.696;11.950;2023-07-13T03:46:06;100617.00;;;20.52;100.00
13015;BME280;6573;57.696;11.950;2023-07-13T03:48:35;100616.59;;;20.61;100.00
13015;BME280;6573;57.696;11.950;2023-07-13T03:51:05;100620.47;;;20.54;100.00
13015;BME280;6573;57.696;11.950;2023-07-13T03:53:34;100612.69;;;20.69;100.00
13015;BME280;6573;57.696;11.950;2023-07-13T03:56:03;100600.81;;;20.55;100.00
13015;BME280;6573;57.696;11.950;2023-07-13T03:58:35;100606.69;;;20.63;100.00
13015;BME280;6573;57.696;11.950;2023-07-13T04:01:05;100612.22;;;20.78;100.00
13015;BME280;6573;57.696;11.950;2023-07-13T04:03:34;100600.94;;;20.90;100.00
13015;BME280;6573;57.696;11.950;2023-07-13T04:06:07;100597.75;;;20.82;100.00
13015;BME280;6573;57.696;11.950;2023-07-13T04:08:37;100602.81;;;20.88;100.00
13015;BME280;6573;57.696;11.950;2023-07-13T04:11:05;100596.97;;;20.80;100.00
13015;BME280;6573;57.696;11.950;2023-07-13T04:13:33;100601.41;;;20.81;100.00
13015;BME280;6573;57.696;11.950;2023-07-13T04:16:02;100601.75;;;20.73;100.00
13015;BME280;6573;57.696;11.950;2023-07-13T04:18:31;100603.00;;;20.66;100.00
13015;BME280;6573;57.696;11.950;2023-07-13T04:20:59;100605.44;;;20.71;100.00
13015;BME280;6573;57.696;11.950;2023-07-13T04:23:29;100600.25;;;20.67;100.00
13015;BME280;6573;57.696;11.950;2023-07-13T04:25:57;100603.41;;;20.57;100.00
13015;BME280;6573;57.696;11.950;2023-07-13T04:28:26;100599.97;;;20.74;100.00
13015;BME280;6573;57.696;11.950;2023-07-13T04:30:55;100607.03;;;20.75;100.00
13015;BME280;6573;57.696;11.950;2023-07-13T04:33:23;100607.63;;;20.62;100.00
13015;BME280;6573;57.696;11.950;2023-07-13T04:35:53;100614.97;;;20.57;100.00
13015;BME280;6573;57.696;11.950;2023-07-13T04:38:24;100616.00;;;20.74;100.00
13015;BME280;6573;57.696;11.950;2023-07-13T04:40:57;100608.84;;;20.55;100.00
13015;BME280;6573;57.696;11.950;2023-07-13T04:43:27;100600.97;;;20.52;100.00
13015;BME280;6573;57.696;11.950;2023-07-13T04:45:56;100591.44;;;20.65;100.00
13015;BME280;6573;57.696;11.950;2023-07-13T04:48:27;100606.50;;;20.66;100.00
13015;BME280;6573;57.696;11.950;2023-07-13T04:50:57;100614.13;;;20.76;100.00
13015;BME280;6573;57.696;11.950;2023-07-13T04:53:26;100608.69;;;20.77;100.00
13015;BME280;6573;57.696;11.950;2023-07-13T04:55:56;100616.16;;;20.71;100.00
13015;BME280;6573;57.696;11.950;2023-07-13T04:58:25;100614.25;;;20.73;100.00
13015;BME280;6573;57.696;11.950;2023-07-13T05:00:59;100608.56;;;20.61;100.00
13015;BME280;6573;57.696;11.950;2023-07-13T05:03:28;100612.09;;;20.81;100.00
13015;BME280;6573;57.696;11.950;2023-07-13T05:06:02;100612.09;;;20.81;100.00
13015;BME280;6573;57.696;11.950;2023-07-13T05:08:31;100611.34;;;20.96;100.00
13015;BME280;6573;57.696;11.950;2023-07-13T05:11:01;100618.41;;;20.97;100.00
13015;BME280;6573;57.696;11.950;2023-07-13T05:13:36;100574.25;;;20.71;100.00
13015;BME280;6573;57.696;11.950;2023-07-13T05:16:05;100603.09;;;20.82;100.00
13015;BME280;6573;57.696;11.950;2023-07-13T05:18:35;100615.41;;;20.86;100.00
13015;BME280;6573;57.696;11.950;2023-07-13T05:21:09;100603.38;;;20.94;100.00
13015;BME280;6573;57.696;11.950;2023-07-13T05:23:39;100616.25;;;21.05;100.00
13015;BME280;6573;57.696;11.950;2023-07-13T05:26:10;100619.84;;;21.04;100.00
13015;BME280;6573;57.696;11.950;2023-07-13T05:28:39;100623.56;;;21.20;100.00
13015;BME280;6573;57.696;11.950;2023-07-13T05:31:09;100617.91;;;21.26;100.00
13015;BME280;6573;57.696;11.950;2023-07-13T05:33:38;100629.06;;;21.34;100.00
13015;BME280;6573;57.696;11.950;2023-07-13T05:36:07;100630.34;;;21.44;100.00
13015;BME280;6573;57.696;11.950;2023-07-13T05:38:35;100625.19;;;21.58;100.00
13015;BME280;6573;57.696;11.950;2023-07-13T05:41:04;100615.88;;;21.65;100.00
13015;BME280;6573;57.696;11.950;2023-07-13T05:43:34;100618.38;;;21.51;100.00
13015;BME280;6573;57.696;11.950;2023-07-13T05:46:02;100626.88;;;21.42;100.00
13015;BME280;6573;57.696;11.950;2023-07-13T05:48:31;100637.81;;;21.20;100.00
13015;BME280;6573;57.696;11.950;2023-07-13T05:51:00;100635.03;;;21.22;100.00
13015;BME280;6573;57.696;11.950;2023-07-13T05:53:31;100630.00;;;21.16;100.00
13015;BME280;6573;57.696;11.950;2023-07-13T05:55:59;100629.41;;;21.28;100.00
13015;BME280;6573;57.696;11.950;2023-07-13T05:58:29;100618.38;;;21.34;100.00
13015;BME280;6573;57.696;11.950;2023-07-13T06:01:06;100624.22;;;21.59;100.00
13015;BME280;6573;57.696;11.950;2023-07-13T06:03:36;100613.13;;;21.50;100.00
13015;BME280;6573;57.696;11.950;2023-07-13T06:06:04;100619.97;;;21.38;100.00
13015;BME280;6573;57.696;11.950;2023-07-13T06:08:36;100622.44;;;21.24;100.00
13015;BME280;6573;57.696;11.950;2023-07-13T06:11:06;100622.16;;;21.30;100.00
13015;BME280;6573;57.696;11.950;2023-07-13T06:13:36;100622.66;;;21.38;100.00
13015;BME280;6573;57.696;11.950;2023-07-13T06:16:06;100625.97;;;21.43;100.00
13015;BME280;6573;57.696;11.950;2023-07-13T06:18:36;100631.75;;;21.51;100.00
13015;BME280;6573;57.696;11.950;2023-07-13T06:21:07;100624.53;;;21.53;100.00
13015;BME280;6573;57.696;11.950;2023-07-13T06:23:36;100627.53;;;21.64;100.00
13015;BME280;6573;57.696;11.950;2023-07-13T06:26:05;100614.75;;;21.35;100.00
13015;BME280;6573;57.696;11.950;2023-07-13T06:28:35;100634.28;;;21.37;100.00
13015;BME280;6573;57.696;11.950;2023-07-13T06:31:09;100612.97;;;21.53;100.00
13015;BME280;6573;57.696;11.950;2023-07-13T06:33:39;100604.31;;;21.48;100.00
13015;BME280;6573;57.696;11.950;2023-07-13T06:36:08;100623.91;;;21.65;100.00
13015;BME280;6573;57.696;11.950;2023-07-13T06:38:37;100606.75;;;21.52;100.00
13015;BME280;6573;57.696;11.950;2023-07-13T06:41:07;100629.56;;;21.59;100.00
13015;BME280;6573;57.696;11.950;2023-07-13T06:43:36;100638.22;;;21.30;100.00
13015;BME280;6573;57.696;11.950;2023-07-13T06:46:05;100636.16;;;21.35;100.00
13015;BME280;6573;57.696;11.950;2023-07-13T06:48:36;100633.03;;;21.44;100.00
13015;BME280;6573;57.696;11.950;2023-07-13T06:51:04;100634.78;;;21.45;100.00
13015;BME280;6573;57.696;11.950;2023-07-13T06:53:35;100644.38;;;21.49;100.00
13015;BME280;6573;57.696;11.950;2023-07-13T06:56:04;100625.34;;;21.72;100.00
13015;BME280;6573;57.696;11.950;2023-07-13T06:58:35;100636.66;;;21.77;100.00
13015;BME280;6573;57.696;11.950;2023-07-13T07:01:04;100644.47;;;21.65;100.00
13015;BME280;6573;57.696;11.950;2023-07-13T07:03:35;100641.53;;;21.69;100.00
13015;BME280;6573;57.696;11.950;2023-07-13T07:06:13;100644.50;;;21.46;100.00
13015;BME280;6573;57.696;11.950;2023-07-13T07:08:42;100637.06;;;21.70;100.00
13015;BME280;6573;57.696;11.950;2023-07-13T07:11:13;100645.72;;;21.75;100.00
13015;BME280;6573;57.696;11.950;2023-07-13T07:13:41;100646.13;;;21.67;100.00
13015;BME280;6573;57.696;11.950;2023-07-13T07:16:10;100648.78;;;21.67;100.00
13015;BME280;6573;57.696;11.950;2023-07-13T07:18:40;100635.47;;;21.66;100.00
13015;BME280;6573;57.696;11.950;2023-07-13T07:21:08;100649.66;;;21.68;100.00
13015;BME280;6573;57.696;11.950;2023-07-13T07:23:37;100661.41;;;21.65;100.00
13015;BME280;6573;57.696;11.950;2023-07-13T07:26:06;100652.56;;;21.63;100.00
13015;BME280;6573;57.696;11.950;2023-07-13T07:28:36;100656.69;;;21.70;100.00
13015;BME280;6573;57.696;11.950;2023-07-13T07:31:09;100660.75;;;21.60;100.00
13015;BME280;6573;57.696;11.950;2023-07-13T07:33:41;100661.56;;;21.62;100.00
13015;BME280;6573;57.696;11.950;2023-07-13T07:36:10;100666.75;;;21.65;100.00
13015;BME280;6573;57.696;11.950;2023-07-13T07:38:42;100673.69;;;21.69;100.00
13015;BME280;6573;57.696;11.950;2023-07-13T07:41:12;100672.91;;;21.67;100.00
13015;BME280;6573;57.696;11.950;2023-07-13T07:43:44;100670.06;;;22.22;100.00
13015;BME280;6573;57.696;11.950;2023-07-13T07:46:12;100673.94;;;22.66;100.00
13015;BME280;6573;57.696;11.950;2023-07-13T07:48:43;100668.25;;;23.03;100.00
13015;BME280;6573;57.696;11.950;2023-07-13T07:51:11;100647.44;;;23.54;100.00
13015;BME280;6573;57.696;11.950;2023-07-13T07:53:40;100649.19;;;23.24;100.00
13015;BME280;6573;57.696;11.950;2023-07-13T07:56:08;100651.38;;;23.78;100.00
13015;BME280;6573;57.696;11.950;2023-07-13T07:58:40;100660.38;;;23.77;100.00
13015;BME280;6573;57.696;11.950;2023-07-13T08:01:12;100672.72;;;23.65;100.00
13015;BME280;6573;57.696;11.950;2023-07-13T08:03:45;100670.78;;;23.22;100.00
13015;BME280;6573;57.696;11.950;2023-07-13T08:06:16;100658.72;;;23.45;100.00
13015;BME280;6573;57.696;11.950;2023-07-13T08:08:49;100665.69;;;23.93;100.00
13015;BME280;6573;57.696;11.950;2023-07-13T08:11:18;100662.22;;;23.76;100.00
13015;BME280;6573;57.696;11.950;2023-07-13T08:13:50;100666.19;;;23.24;100.00
13015;BME280;6573;57.696;11.950;2023-07-13T08:16:22;100671.47;;;22.94;100.00
13015;BME280;6573;57.696;11.950;2023-07-13T08:18:54;100684.50;;;23.00;100.00
13015;BME280;6573;57.696;11.950;2023-07-13T08:21:22;100680.19;;;23.29;100.00
13015;BME280;6573;57.696;11.950;2023-07-13T08:23:52;100682.78;;;23.31;100.00
13015;BME280;6573;57.696;11.950;2023-07-13T08:26:21;100665.09;;;23.58;100.00
13015;BME280;6573;57.696;11.950;2023-07-13T08:28:50;100680.06;;;24.07;100.00
13015;BME280;6573;57.696;11.950;2023-07-13T08:31:18;100680.28;;;23.89;100.00
13015;BME280;6573;57.696;11.950;2023-07-13T08:33:47;100676.47;;;23.77;100.00
13015;BME280;6573;57.696;11.950;2023-07-13T08:36:16;100688.25;;;23.90;100.00
13015;BME280;6573;57.696;11.950;2023-07-13T08:38:45;100668.72;;;23.57;100.00
13015;BME280;6573;57.696;11.950;2023-07-13T08:41:21;100687.31;;;23.46;100.00
13015;BME280;6573;57.696;11.950;2023-07-13T08:43:58;100695.97;;;23.51;100.00
13015;BME280;6573;57.696;11.950;2023-07-13T08:46:33;100690.59;;;23.19;100.00
13015;BME280;6573;57.696;11.950;2023-07-13T08:49:10;100695.09;;;23.19;100.00
13015;BME280;6573;57.696;11.950;2023-07-13T08:51:44;100694.91;;;23.06;100.00
13015;BME280;6573;57.696;11.950;2023-07-13T08:54:21;100697.59;;;22.91;100.00
13015;BME280;6573;57.696;11.950;2023-07-13T08:56:53;100685.56;;;22.98;100.00
13015;BME280;6573;57.696;11.950;2023-07-13T08:59:24;100697.88;;;23.02;100.00
13015;BME280;6573;57.696;11.950;2023-07-13T09:02:08;100706.34;;;23.26;100.00
13015;BME280;6573;57.696;11.950;2023-07-13T09:04:45;100684.19;;;23.06;100.00
13015;BME280;6573;57.696;11.950;2023-07-13T09:07:27;100692.50;;;23.49;100.00
13015;BME280;6573;57.696;11.950;2023-07-13T09:10:05;100691.97;;;23.27;100.00
13015;BME280;6573;57.696;11.950;2023-07-13T09:12:47;100697.34;;;23.27;100.00
13015;BME280;6573;57.696;11.950;2023-07-13T09:15:27;100678.63;;;23.25;100.00
13015;BME280;6573;57.696;11.950;2023-07-13T09:18:02;100694.91;;;23.06;100.00
13015;BME280;6573;57.696;11.950;2023-07-13T09:20:35;100694.28;;;22.86;100.00
13015;BME280;6573;57.696;11.950;2023-07-13T09:23:10;100709.28;;;22.90;100.00
13015;BME280;6573;57.696;11.950;2023-07-13T09:25:41;100702.97;;;23.22;100.00
13015;BME280;6573;57.696;11.950;2023-07-13T09:28:18;100703.59;;;23.43;100.00
13015;BME280;6573;57.696;11.950;2023-07-13T09:30:52;100705.50;;;23.41;100.00
13015;BME280;6573;57.696;11.950;2023-07-13T09:33:23;100712.78;;;23.39;100.00
13015;BME280;6573;57.696;11.950;2023-07-13T09:35:52;100713.59;;;23.70;100.00
13015;BME280;6573;57.696;11.950;2023-07-13T09:38:22;100694.63;;;24.03;100.00
13015;BME280;6573;57.696;11.950;2023-07-13T09:41:11;100706.94;;;24.07;100.00
13015;BME280;6573;57.696;11.950;2023-07-13T09:44:08;100709.91;;;23.87;100.00
13015;BME280;6573;57.696;11.950;2023-07-13T09:46:40;100692.38;;;23.35;100.00
13015;BME280;6573;57.696;11.950;2023-07-13T09:49:12;100713.63;;;23.55;100.00
13015;BME280;6573;57.696;11.950;2023-07-13T09:51:41;100715.69;;;23.50;100.00
13015;BME280;6573;57.696;11.950;2023-07-13T09:54:24;100722.09;;;23.63;100.00
13015;BME280;6573;57.696;11.950;2023-07-13T09:56:56;100711.50;;;23.75;100.00
13015;BME280;6573;57.696;11.950;2023-07-13T09:59:29;100703.41;;;23.61;100.00
13015;BME280;6573;57.696;11.950;2023-07-13T10:01:58;100717.59;;;23.63;100.00
13015;BME280;6573;57.696;11.950;2023-07-13T10:04:30;100720.91;;;23.37;100.00
13015;BME280;6573;57.696;11.950;2023-07-13T10:07:06;100724.56;;;23.52;100.00
13015;BME280;6573;57.696;11.950;2023-07-13T10:09:54;100704.78;;;23.53;100.00
13015;BME280;6573;57.696;11.950;2023-07-13T10:12:24;100715.84;;;23.78;100.00
13015;BME280;6573;57.696;11.950;2023-07-13T10:14:59;100707.88;;;24.06;100.00
13015;BME280;6573;57.696;11.950;2023-07-13T10:17:52;100709.91;;;23.87;100.00
13015;BME280;6573;57.696;11.950;2023-07-13T10:20:22;100709.91;;;23.87;100.00
13015;BME280;6573;57.696;11.950;2023-07-13T10:22:53;100714.78;;;23.80;100.00
13015;BME280;6573;57.696;11.950;2023-07-13T10:25:26;100719.47;;;23.77;100.00
13015;BME280;6573;57.696;11.950;2023-07-13T10:28:02;100716.91;;;23.60;100.00
13015;BME280;6573;57.696;11.950;2023-07-13T10:30:35;100722.81;;;23.51;100.00
13015;BME280;6573;57.696;11.950;2023-07-13T10:33:11;100721.66;;;23.55;100.00
13015;BME280;6573;57.696;11.950;2023-07-13T10:35:43;100708.00;;;23.44;100.00
13015;BME280;6573;57.696;11.950;2023-07-13T10:38:14;100728.41;;;23.62;100.00
13015;BME280;6573;57.696;11.950;2023-07-13T10:40:56;100704.34;;;23.60;100.00
13015;BME280;6573;57.696;11.950;2023-07-13T10:43:28;100719.31;;;23.33;100.00
13015;BME280;6573;57.696;11.950;2023-07-13T10:46:01;100718.81;;;23.58;100.00
13015;BME280;6573;57.696;11.950;2023-07-13T10:48:32;100730.28;;;23.46;100.00
13015;BME280;6573;57.696;11.950;2023-07-13T10:51:05;100709.97;;;23.25;100.00
13015;BME280;6573;57.696;11.950;2023-07-13T10:53:36;100710.88;;;23.41;100.00
13015;BME280;6573;57.696;11.950;2023-07-13T10:56:22;100718.38;;;23.50;100.00
13015;BME280;6573;57.696;11.950;2023-07-13T10:59:02;100717.06;;;23.57;100.00
13015;BME280;6573;57.696;11.950;2023-07-13T11:01:50;100721.59;;;23.56;100.00
13015;BME280;6573;57.696;11.950;2023-07-13T11:04:20;100724.91;;;23.46;100.00
13015;BME280;6573;57.696;11.950;2023-07-13T11:06:51;100698.59;;;23.37;100.00
13015;BME280;6573;57.696;11.950;2023-07-13T11:09:36;100723.69;;;23.36;100.00
13015;BME280;6573;57.696;11.950;2023-07-13T11:12:28;100725.38;;;23.68;100.00
13015;BME280;6573;57.696;11.950;2023-07-13T11:15:05;100719.25;;;23.66;100.00
13015;BME280;6573;57.696;11.950;2023-07-13T11:17:37;100723.28;;;23.89;100.00
13015;BME280;6573;57.696;11.950;2023-07-13T11:20:31;100727.66;;;23.60;100.00
13015;BME280;6573;57.696;11.950;2023-07-13T11:23:19;100720.91;;;23.98;100.00
13015;BME280;6573;57.696;11.950;2023-07-13T11:25:48;100723.75;;;23.95;100.00
13015;BME280;6573;57.696;11.950;2023-07-13T11:28:24;100730.88;;;23.96;100.00
13015;BME280;6573;57.696;11.950;2023-07-13T11:31:02;100733.63;;;23.95;100.00
13015;BME280;6573;57.696;11.950;2023-07-13T11:33:56;100735.69;;;24.05;100.00
13015;BME280;6573;57.696;11.950;2023-07-13T11:36:31;100731.16;;;24.21;100.00
13015;BME280;6573;57.696;11.950;2023-07-13T11:39:09;100739.53;;;24.01;100.00
13015;BME280;6573;57.696;11.950;2023-07-13T11:41:45;100717.59;;;23.79;100.00
13015;BME280;6573;57.696;11.950;2023-07-13T11:44:18;100747.25;;;24.07;100.00
13015;BME280;6573;57.696;11.950;2023-07-13T11:46:48;100743.50;;;23.94;100.00
13015;BME280;6573;57.696;11.950;2023-07-13T11:49:22;100735.78;;;23.74;100.00
13015;BME280;6573;57.696;11.950;2023-07-13T11:51:52;100754.03;;;23.83;100.00
13015;BME280;6573;57.696;11.950;2023-07-13T11:54:27;100753.16;;;24.14;100.00
13015;BME280;6573;57.696;11.950;2023-07-13T11:56:58;100749.75;;;24.10;100.00
13015;BME280;6573;57.696;11.950;2023-07-13T11:59:31;100752.19;;;23.99;100.00
13015;BME280;6573;57.696;11.950;2023-07-13T12:02:00;100754.47;;;23.91;100.00
13015;BME280;6573;57.696;11.950;2023-07-13T12:04:32;100744.72;;;24.04;100.00
13015;BME280;6573;57.696;11.950;2023-07-13T12:07:07;100746.75;;;24.30;100.00
13015;BME280;6573;57.696;11.950;2023-07-13T12:09:36;100737.69;;;24.31;100.00
13015;BME280;6573;57.696;11.950;2023-07-13T12:12:10;100745.13;;;24.56;100.00
13015;BME280;6573;57.696;11.950;2023-07-13T12:14:41;100752.38;;;24.56;100.00
13015;BME280;6573;57.696;11.950;2023-07-13T12:17:20;100745.91;;;24.14;100.00
13015;BME280;6573;57.696;11.950;2023-07-13T12:19:49;100752.88;;;24.18;100.00
13015;BME280;6573;57.696;11.950;2023-07-13T12:22:19;100743.47;;;24.25;100.00
13015;BME280;6573;57.696;11.950;2023-07-13T12:24:51;100744.72;;;24.04;100.00
13015;BME280;6573;57.696;11.950;2023-07-13T12:27:21;100753.28;;;23.81;100.00
13015;BME280;6573;57.696;11.950;2023-07-13T12:29:58;100761.97;;;23.55;100.00
13015;BME280;6573;57.696;11.950;2023-07-13T12:32:27;100762.50;;;23.61;100.00
13015;BME280;6573;57.696;11.950;2023-07-13T12:35:14;100761.69;;;24.05;100.00
13015;BME280;6573;57.696;11.950;2023-07-13T12:37:46;100759.97;;;24.19;100.00
13015;BME280;6573;57.696;11.950;2023-07-13T12:40:15;100754.19;;;23.96;100.00
13015;BME280;6573;57.696;11.950;2023-07-13T12:42:47;100764.66;;;24.00;100.00
13015;BME280;6573;57.696;11.950;2023-07-13T12:45:20;100764.53;;;23.88;100.00
13015;BME280;6573;57.696;11.950;2023-07-13T12:47:50;100776.97;;;24.04;100.00
13015;BME280;6573;57.696;11.950;2023-07-13T12:50:22;100767.53;;;23.97;100.00
13015;BME280;6573;57.696;11.950;2023-07-13T12:52:52;100773.34;;;23.90;100.00
13015;BME280;6573;57.696;11.950;2023-07-13T12:55:21;100764.34;;;23.91;100.00
13015;BME280;6573;57.696;11.950;2023-07-13T12:57:53;100772.13;;;23.95;100.00
13015;BME280;6573;57.696;11.950;2023-07-13T13:00:28;100740.44;;;23.86;100.00
13015;BME280;6573;57.696;11.950;2023-07-13T13:03:06;100767.97;;;23.90;100.00